createdAt,value
2023-01-25T00:00:11.282Z,10.30
2023-01-25T00:02:59.582Z,10.40
2023-01-25T00:05:32.199Z,10.50
2023-01-25T00:08:00.435Z,11.10
2023-01-25T00:10:51.861Z,10.00
2023-01-25T00:13:20.264Z,10.60
2023-01-25T00:15:48.246Z,10.90
2023-01-25T00:18:34.995Z,11.50
2023-01-25T00:21:32.312Z,12.30
2023-01-25T00:24:06.135Z,11.00
2023-01-25T00:26:35.355Z,10.90
2023-01-25T00:29:04.294Z,10.60
2023-01-25T00:31:35.316Z,11.20
2023-01-25T00:34:25.445Z,11.50
2023-01-25T00:37:01.636Z,10.20
2023-01-25T00:39:29.985Z,10.80
2023-01-25T00:41:58.075Z,11.80
2023-01-25T00:44:26.624Z,10.40
2023-01-25T00:46:54.825Z,10.30
2023-01-25T00:49:25.396Z,9.90
2023-01-25T00:51:56.169Z,10.80
2023-01-25T00:54:24.419Z,10.80
2023-01-25T00:56:54.484Z,10.50
2023-01-25T00:59:24.362Z,10.40
2023-01-25T01:01:54.346Z,9.70
2023-01-25T01:04:25.919Z,10.50
2023-01-25T01:06:54.483Z,10.20
2023-01-25T01:09:23.841Z,10.60
2023-01-25T01:11:54.102Z,10.20
2023-01-25T01:14:23.547Z,9.80
2023-01-25T01:16:51.807Z,9.40
2023-01-25T01:19:20.502Z,9.90
2023-01-25T01:21:48.778Z,8.50
2023-01-25T01:24:18.104Z,10.00
2023-01-25T01:26:46.405Z,10.40
2023-01-25T01:29:16.682Z,10.20
2023-01-25T01:31:45.031Z,10.90
2023-01-25T01:34:36.081Z,10.10
2023-01-25T01:37:04.398Z,10.70
2023-01-25T01:39:32.454Z,10.20
2023-01-25T01:42:01.078Z,10.30
2023-01-25T01:44:46.816Z,10.40
2023-01-25T01:47:29.386Z,10.40
2023-01-25T01:50:17.110Z,11.50
2023-01-25T01:52:45.896Z,10.90
2023-01-25T01:55:19.492Z,9.90
2023-01-25T01:57:52.087Z,10.10
2023-01-25T02:00:28.292Z,11.20
2023-01-25T02:02:58.084Z,11.70
2023-01-25T02:06:02.937Z,10.60
2023-01-25T02:08:37.001Z,11.50
2023-01-25T02:11:05.405Z,11.60
2023-01-25T02:13:35.897Z,11.40
2023-01-25T02:16:05.168Z,12.20
2023-01-25T02:18:33.500Z,11.80
2023-01-25T02:21:02.420Z,10.90
2023-01-25T02:23:54.575Z,11.40
2023-01-25T02:26:23.571Z,11.90
2023-01-25T02:29:02.382Z,12.50
2023-01-25T02:31:34.825Z,12.40
2023-01-25T02:34:03.602Z,11.40
2023-01-25T02:36:34.202Z,11.50
2023-01-25T02:39:24.337Z,11.90
2023-01-25T02:42:11.389Z,11.80
2023-01-25T02:44:41.223Z,11.80
2023-01-25T02:47:09.620Z,11.80
2023-01-25T02:49:38.505Z,12.50
2023-01-25T02:52:09.647Z,12.40
2023-01-25T02:54:38.021Z,12.80
2023-01-25T02:57:08.143Z,11.90
2023-01-25T02:59:43.317Z,11.90
2023-01-25T03:02:11.863Z,12.00
2023-01-25T03:04:40.139Z,13.10
2023-01-25T03:07:09.352Z,13.90
2023-01-25T03:09:37.522Z,12.90
2023-01-25T03:12:06.406Z,13.20
2023-01-25T03:14:39.735Z,14.00
2023-01-25T03:17:11.028Z,14.70
2023-01-25T03:19:39.144Z,13.70
2023-01-25T03:22:07.489Z,12.40
2023-01-25T03:24:36.190Z,11.70
2023-01-25T03:27:11.118Z,12.00
2023-01-25T03:29:45.960Z,13.00
2023-01-25T03:32:17.683Z,12.20
2023-01-25T03:34:46.046Z,12.00
2023-01-25T03:37:15.203Z,12.50
2023-01-25T03:39:44.008Z,13.30
2023-01-25T03:42:12.224Z,11.60
2023-01-25T03:44:41.049Z,12.70
2023-01-25T03:47:09.365Z,11.10
2023-01-25T03:49:37.785Z,12.90
2023-01-25T03:52:10.183Z,13.00
2023-01-25T03:54:40.132Z,11.20
2023-01-25T03:57:09.488Z,12.00
2023-01-25T03:59:51.066Z,11.50
2023-01-25T04:02:19.312Z,12.90
2023-01-25T04:04:47.471Z,13.00
2023-01-25T04:07:40.574Z,14.20
2023-01-25T04:10:10.416Z,12.90
2023-01-25T04:12:41.505Z,12.80
2023-01-25T04:15:10.948Z,11.40
2023-01-25T04:17:59.911Z,13.20
2023-01-25T04:20:29.649Z,14.00
2023-01-25T04:22:58.216Z,13.00
2023-01-25T04:25:31.180Z,13.40
2023-01-25T04:27:59.578Z,14.30
2023-01-25T04:30:27.683Z,14.10
2023-01-25T04:32:56.758Z,13.90
2023-01-25T04:35:28.068Z,13.90
2023-01-25T04:37:58.753Z,13.20
2023-01-25T04:40:51.432Z,14.10
2023-01-25T04:43:21.046Z,13.50
2023-01-25T04:45:50.483Z,13.70
2023-01-25T04:48:23.665Z,13.20
2023-01-25T04:50:56.734Z,14.30
2023-01-25T04:53:44.664Z,14.30
2023-01-25T04:56:13.258Z,15.20
2023-01-25T04:59:07.822Z,15.10
2023-01-25T05:01:36.336Z,15.50
2023-01-25T05:04:06.667Z,15.60
2023-01-25T05:06:39.631Z,16.10
2023-01-25T05:09:09.694Z,14.50
2023-01-25T05:11:38.248Z,15.90
2023-01-25T05:14:14.503Z,13.80
2023-01-25T05:19:35.539Z,14.30
2023-01-25T05:22:25.397Z,14.40
2023-01-25T05:24:54.537Z,14.70
2023-01-25T05:27:23.423Z,16.60
2023-01-25T05:29:55.016Z,16.10
2023-01-25T05:33:01.951Z,17.60
2023-01-25T05:35:30.523Z,14.90
2023-01-25T05:37:59.665Z,15.50
2023-01-25T05:40:28.131Z,16.00
2023-01-25T05:43:00.092Z,15.70
2023-01-25T05:45:30.567Z,15.80
2023-01-25T05:47:59.573Z,15.10
2023-01-25T05:50:28.115Z,16.30
2023-01-25T05:53:02.438Z,14.40
2023-01-25T05:55:31.065Z,15.50
2023-01-25T05:58:07.729Z,16.60
2023-01-25T06:00:35.909Z,17.80
2023-01-25T06:03:04.437Z,15.30
2023-01-25T06:05:35.932Z,16.30
2023-01-25T06:08:04.327Z,15.50
2023-01-25T06:10:51.413Z,15.70
2023-01-25T06:13:22.382Z,15.50
2023-01-25T06:15:57.738Z,15.90
2023-01-25T06:18:49.315Z,15.50
2023-01-25T06:21:42.124Z,13.90
2023-01-25T06:24:10.872Z,15.60
2023-01-25T06:26:39.088Z,14.80
2023-01-25T06:29:07.215Z,16.50
2023-01-25T06:31:58.576Z,16.30
2023-01-25T06:34:46.401Z,16.70
2023-01-25T06:37:23.167Z,15.40
2023-01-25T06:40:11.215Z,16.70
2023-01-25T06:42:44.396Z,17.90
2023-01-25T06:45:17.094Z,16.00
2023-01-25T06:47:46.968Z,15.80
2023-01-25T06:50:15.461Z,15.50
2023-01-25T06:52:43.503Z,14.80
2023-01-25T06:55:14.171Z,14.90
2023-01-25T06:57:49.804Z,15.20
2023-01-25T07:00:18.833Z,14.20
2023-01-25T07:03:05.891Z,14.70
2023-01-25T07:05:34.388Z,13.70
2023-01-25T07:08:22.788Z,14.00
2023-01-25T07:10:58.887Z,14.30
2023-01-25T07:13:28.619Z,14.10
2023-01-25T07:15:59.721Z,16.30
2023-01-25T07:18:47.185Z,15.00
2023-01-25T07:21:18.809Z,15.70
2023-01-25T07:23:47.466Z,16.20
2023-01-25T07:26:24.744Z,16.20
2023-01-25T07:28:53.770Z,14.90
2023-01-25T07:31:22.801Z,14.80
2023-01-25T07:33:53.315Z,15.50
2023-01-25T07:36:22.401Z,14.40
2023-01-25T07:38:57.011Z,13.00
2023-01-25T07:41:26.085Z,14.30
2023-01-25T07:43:54.712Z,12.30
2023-01-25T07:46:39.795Z,12.20
2023-01-25T07:49:07.900Z,12.50
2023-01-25T07:51:36.005Z,13.50
2023-01-25T07:54:23.240Z,14.50
2023-01-25T07:56:51.307Z,14.20
2023-01-25T07:59:19.340Z,12.70
2023-01-25T08:01:47.668Z,14.90
2023-01-25T08:04:15.689Z,13.30
2023-01-25T08:06:46.483Z,13.20
2023-01-25T08:09:22.492Z,12.90
2023-01-25T08:11:50.706Z,12.00
2023-01-25T08:14:18.770Z,13.30
2023-01-25T08:16:47.077Z,12.20
2023-01-25T08:19:33.716Z,13.00
2023-01-25T08:22:02.258Z,12.90
2023-01-25T08:24:30.660Z,13.30
2023-01-25T08:27:01.043Z,14.30
2023-01-25T08:29:29.731Z,14.20
2023-01-25T08:31:57.887Z,13.00
2023-01-25T08:34:25.976Z,13.30
2023-01-25T08:36:54.154Z,12.90
2023-01-25T08:39:22.418Z,14.10
2023-01-25T08:41:50.477Z,13.60
2023-01-25T08:44:24.315Z,14.40
2023-01-25T08:46:57.469Z,13.10
2023-01-25T08:49:27.520Z,13.30
2023-01-25T08:51:55.657Z,13.00
2023-01-25T08:54:24.830Z,16.10
2023-01-25T08:56:53.282Z,15.10
2023-01-25T08:59:44.841Z,15.90
2023-01-25T09:02:13.992Z,15.50
2023-01-25T09:04:42.215Z,14.60
2023-01-25T09:07:11.006Z,18.10
2023-01-25T09:09:44.602Z,15.50
2023-01-25T09:12:12.768Z,14.40
2023-01-25T09:14:40.788Z,15.90
2023-01-25T09:17:10.205Z,15.50
2023-01-25T09:19:38.465Z,15.90
2023-01-25T09:22:06.563Z,14.50
2023-01-25T09:24:36.993Z,14.60
2023-01-25T09:27:30.747Z,15.70
2023-01-25T09:30:16.614Z,15.70
2023-01-25T09:32:50.858Z,15.40
2023-01-25T09:35:19.347Z,15.30
2023-01-25T09:37:51.053Z,15.40
2023-01-25T09:40:22.549Z,16.00
2023-01-25T09:43:27.103Z,16.40
2023-01-25T09:46:26.572Z,15.90
2023-01-25T09:49:26.995Z,15.10
2023-01-25T09:52:27.376Z,16.80
2023-01-25T09:54:55.464Z,16.50
2023-01-25T09:57:26.523Z,16.00
2023-01-25T09:59:55.395Z,17.10
2023-01-25T10:02:34.931Z,17.80
2023-01-25T10:05:31.287Z,16.00
2023-01-25T10:08:16.340Z,16.70
2023-01-25T10:10:47.301Z,16.50
2023-01-25T10:13:19.427Z,16.10
2023-01-25T10:15:56.000Z,17.10
2023-01-25T10:18:33.684Z,18.30
2023-01-25T10:21:13.337Z,17.90
2023-01-25T10:23:56.555Z,17.50
2023-01-25T10:26:33.344Z,18.20
2023-01-25T10:29:04.988Z,17.90
2023-01-25T10:31:50.790Z,17.90
2023-01-25T10:34:31.486Z,17.50
2023-01-25T10:37:11.846Z,17.30
2023-01-25T10:39:57.520Z,17.00
2023-01-25T10:42:29.882Z,18.50
2023-01-25T10:47:37.399Z,16.90
2023-01-25T10:50:06.035Z,20.10
2023-01-25T10:52:37.802Z,20.00
2023-01-25T10:55:17.815Z,18.30
2023-01-25T10:57:53.581Z,19.90
2023-01-25T11:00:30.681Z,22.00
2023-01-25T11:02:59.156Z,21.70
2023-01-25T11:05:35.800Z,20.60
2023-01-25T11:08:25.784Z,23.30
2023-01-25T11:10:55.683Z,22.00
2023-01-25T11:13:29.813Z,23.10
2023-01-25T11:16:01.922Z,22.90
2023-01-25T11:18:33.964Z,23.60
2023-01-25T11:21:06.722Z,24.40
2023-01-25T11:23:34.986Z,22.40
2023-01-25T11:26:15.722Z,24.20
2023-01-25T11:28:45.662Z,25.20
2023-01-25T11:31:20.434Z,25.50
2023-01-25T11:33:49.002Z,25.90
2023-01-25T11:36:22.640Z,27.00
2023-01-25T11:39:07.124Z,29.80
2023-01-25T11:42:12.601Z,30.30
2023-01-25T11:45:09.131Z,30.00
2023-01-25T11:47:53.056Z,29.70
2023-01-25T11:50:39.283Z,31.90
2023-01-25T11:53:29.247Z,30.30
2023-01-25T11:56:26.061Z,32.30
2023-01-25T11:59:37.811Z,34.40
2023-01-25T12:03:03.691Z,34.00
2023-01-25T12:05:57.090Z,32.70
2023-01-25T12:08:34.959Z,32.70
2023-01-25T12:11:12.177Z,32.90
2023-01-25T12:14:08.168Z,34.30
2023-01-25T12:17:01.952Z,33.30
2023-01-25T12:19:57.662Z,31.60
2023-01-25T12:22:45.511Z,34.70
2023-01-25T12:25:22.776Z,33.40
2023-01-25T12:28:19.698Z,33.70
2023-01-25T12:31:20.196Z,32.90
2023-01-25T12:34:03.584Z,33.40
2023-01-25T12:36:38.409Z,32.60
2023-01-25T12:39:12.726Z,32.90
2023-01-25T12:42:00.301Z,31.90
2023-01-25T12:44:37.479Z,32.40
2023-01-25T12:47:22.475Z,33.10
2023-01-25T12:50:15.192Z,32.40
2023-01-25T12:53:15.504Z,30.90
2023-01-25T12:55:44.762Z,32.80
2023-01-25T12:58:16.412Z,33.80
2023-01-25T13:00:55.581Z,30.40
2023-01-25T13:03:41.590Z,29.70
2023-01-25T13:06:25.253Z,30.50
2023-01-25T13:08:56.403Z,30.30
2023-01-25T13:11:32.345Z,31.70
2023-01-25T13:14:31.385Z,30.10
2023-01-25T13:17:28.003Z,29.30
2023-01-25T13:19:56.263Z,29.90
2023-01-25T13:23:09.894Z,30.40
2023-01-25T13:25:51.885Z,29.10
2023-01-25T13:28:41.157Z,31.40
2023-01-25T13:31:09.674Z,29.90
2023-01-25T13:33:37.980Z,29.90
2023-01-25T13:36:37.520Z,29.30
2023-01-25T13:39:24.545Z,29.40
2023-01-25T13:42:03.558Z,29.40
2023-01-25T13:44:34.525Z,28.70
2023-01-25T13:47:05.843Z,28.20
2023-01-25T13:49:42.964Z,27.20
2023-01-25T13:52:19.675Z,28.00
2023-01-25T13:54:49.474Z,28.00
2023-01-25T14:00:14.954Z,27.30
2023-01-25T14:02:47.313Z,29.90
2023-01-25T14:05:25.766Z,26.90
2023-01-25T14:07:57.385Z,26.30
2023-01-25T14:10:28.001Z,26.50
2023-01-25T14:13:00.719Z,26.30
2023-01-25T14:15:31.118Z,25.50
2023-01-25T14:18:19.272Z,28.00
2023-01-25T14:20:50.671Z,28.00
2023-01-25T14:23:30.244Z,29.20
2023-01-25T14:25:59.327Z,28.40
2023-01-25T14:28:29.392Z,29.10
2023-01-25T14:31:01.579Z,28.40
2023-01-25T14:33:33.017Z,28.90
2023-01-25T14:36:24.378Z,30.40
2023-01-25T14:38:54.757Z,29.70
2023-01-25T14:41:36.320Z,29.10
2023-01-25T14:44:10.680Z,29.00
2023-01-25T14:46:40.560Z,28.40
2023-01-25T14:49:26.301Z,29.70
2023-01-25T14:52:02.482Z,29.50
2023-01-25T14:54:33.111Z,28.20
2023-01-25T14:57:04.388Z,31.40
2023-01-25T14:59:37.181Z,30.10
2023-01-25T15:02:46.113Z,29.50
2023-01-25T15:05:17.561Z,30.20
2023-01-25T15:07:51.357Z,29.40
2023-01-25T15:10:24.189Z,29.40
2023-01-25T15:13:15.715Z,32.80
2023-01-25T15:15:59.194Z,35.70
2023-01-25T15:19:00.005Z,34.40
2023-01-25T15:21:30.725Z,32.80
2023-01-25T15:24:06.932Z,32.30
2023-01-25T15:26:36.339Z,34.20
2023-01-25T15:29:20.729Z,32.80
2023-01-25T15:31:50.955Z,31.20
2023-01-25T15:34:25.332Z,33.70
2023-01-25T15:36:53.461Z,32.90
2023-01-25T15:39:21.889Z,30.80
2023-01-25T15:41:49.993Z,31.50
2023-01-25T15:44:20.372Z,32.60
2023-01-25T15:46:51.597Z,33.30
2023-01-25T15:49:28.043Z,31.80
2023-01-25T15:51:56.979Z,32.50
2023-01-25T15:54:25.220Z,32.40
2023-01-25T15:56:57.609Z,32.60
2023-01-25T16:01:55.334Z,37.40
2023-01-25T16:04:25.319Z,39.10
2023-01-25T16:06:55.024Z,35.70
2023-01-25T16:09:27.265Z,36.50
2023-01-25T16:27:41.055Z,39.30
2023-01-25T16:30:18.616Z,31.60
2023-01-25T16:32:46.947Z,34.10
2023-01-25T16:35:15.086Z,34.20
2023-01-25T16:37:43.346Z,35.40
2023-01-25T16:40:23.194Z,36.20
2023-01-25T16:42:51.757Z,36.40
2023-01-25T16:45:19.941Z,32.50
2023-01-25T16:47:48.304Z,32.90
2023-01-25T16:50:20.023Z,34.40
2023-01-25T16:52:51.366Z,36.90
2023-01-25T16:55:19.592Z,35.20
2023-01-25T16:57:51.241Z,40.40
2023-01-25T17:00:20.152Z,40.20
2023-01-25T17:02:58.789Z,39.80
2023-01-25T17:05:32.747Z,40.30
2023-01-25T17:08:01.182Z,43.20
2023-01-25T17:10:34.832Z,43.10
2023-01-25T17:13:03.442Z,43.20
2023-01-25T17:15:33.720Z,40.00
2023-01-25T17:18:02.253Z,34.50
2023-01-25T17:20:30.399Z,37.90
2023-01-25T17:22:58.494Z,35.90
2023-01-25T17:25:26.807Z,40.10
2023-01-25T17:27:54.908Z,37.70
2023-01-25T17:30:23.052Z,41.20
2023-01-25T17:32:51.195Z,41.10
2023-01-25T17:35:19.447Z,45.50
2023-01-25T17:37:47.569Z,44.70
2023-01-25T17:40:15.956Z,44.80
2023-01-25T17:42:44.475Z,55.20
2023-01-25T17:45:12.734Z,42.20
2023-01-25T17:47:41.016Z,36.40
2023-01-25T17:50:10.283Z,49.00
2023-01-25T17:52:39.011Z,46.50
2023-01-25T17:55:07.628Z,49.30
2023-01-25T17:57:37.313Z,54.60
2023-01-25T18:00:06.619Z,62.60
2023-01-25T18:02:45.433Z,65.40
2023-01-25T18:05:15.751Z,50.70
2023-01-25T18:07:45.293Z,45.10
2023-01-25T18:10:13.989Z,51.00
2023-01-25T18:12:43.733Z,61.30
2023-01-25T18:15:12.446Z,66.70
2023-01-25T18:17:40.747Z,84.40
2023-01-25T18:20:10.732Z,81.40
2023-01-25T18:22:39.067Z,66.60
2023-01-25T18:25:28.428Z,31.50
2023-01-25T18:27:56.731Z,27.20
2023-01-25T18:30:44.430Z,26.30
2023-01-25T18:33:12.562Z,30.30
2023-01-25T18:35:43.394Z,43.50
2023-01-25T18:38:13.077Z,35.70
2023-01-25T18:40:43.827Z,44.70
2023-01-25T18:43:13.797Z,29.20
2023-01-25T18:45:42.834Z,27.30
2023-01-25T18:48:13.564Z,26.80
2023-01-25T18:50:42.752Z,27.30
2023-01-25T18:53:11.105Z,28.20
2023-01-25T18:55:39.468Z,26.20
2023-01-25T18:58:07.737Z,26.20
2023-01-25T19:00:36.343Z,24.90
2023-01-25T19:03:04.618Z,25.00
2023-01-25T19:05:32.882Z,26.10
2023-01-25T19:08:00.989Z,26.80
2023-01-25T19:10:29.053Z,25.90
2023-01-25T19:12:57.501Z,25.50
2023-01-25T19:15:25.678Z,25.00
2023-01-25T19:17:53.732Z,26.00
2023-01-25T19:20:22.093Z,28.10
2023-01-25T19:22:53.859Z,26.00
2023-01-25T19:25:23.003Z,25.80
2023-01-25T19:27:51.613Z,24.70
2023-01-25T19:30:19.915Z,24.80
2023-01-25T19:32:48.307Z,26.10
2023-01-25T19:35:16.401Z,25.90
2023-01-25T19:37:44.639Z,25.80
2023-01-25T19:40:13.643Z,25.70
2023-01-25T19:42:41.885Z,26.20
2023-01-25T19:45:10.814Z,25.90
2023-01-25T19:47:39.272Z,27.30
2023-01-25T19:50:08.249Z,27.50
2023-01-25T19:52:36.581Z,28.20
2023-01-25T19:55:05.436Z,27.70
2023-01-25T19:57:38.331Z,26.40
2023-01-25T20:00:07.168Z,28.00
2023-01-25T20:02:36.761Z,26.20
2023-01-25T20:05:05.254Z,24.70
2023-01-25T20:07:33.895Z,25.30
2023-01-25T20:10:02.105Z,27.30
2023-01-25T20:12:30.212Z,24.80
2023-01-25T20:14:58.700Z,27.40
2023-01-25T20:17:26.855Z,28.30
2023-01-25T20:19:54.886Z,27.60
2023-01-25T20:22:23.312Z,26.80
2023-01-25T20:24:51.430Z,24.10
2023-01-25T20:27:19.620Z,26.00
2023-01-25T20:29:49.291Z,26.50
2023-01-25T20:32:31.982Z,26.60
2023-01-25T20:35:03.734Z,26.30
2023-01-25T20:37:32.173Z,28.30
2023-01-25T20:40:00.248Z,28.80
2023-01-25T20:42:28.438Z,27.90
2023-01-25T20:44:57.008Z,27.90
2023-01-25T20:47:25.130Z,26.60
2023-01-25T20:49:53.261Z,28.20
2023-01-25T20:52:21.689Z,28.90
2023-01-25T20:54:49.966Z,29.90
2023-01-25T20:57:18.115Z,30.50
2023-01-25T20:59:46.458Z,28.80
2023-01-25T21:02:14.801Z,31.10
2023-01-25T21:04:43.198Z,27.20
2023-01-25T21:07:11.642Z,28.90
2023-01-25T21:09:42.094Z,31.50
2023-01-25T21:12:11.300Z,30.20
2023-01-25T21:14:39.445Z,30.70
2023-01-25T21:17:10.311Z,29.10
2023-01-25T21:19:38.492Z,29.80
2023-01-25T21:22:06.720Z,30.90
2023-01-25T21:24:35.264Z,27.70
2023-01-25T21:27:03.453Z,29.50
2023-01-25T21:29:31.776Z,29.20
2023-01-25T21:32:00.125Z,29.10
2023-01-25T21:34:31.023Z,26.90
2023-01-25T21:36:59.738Z,23.70
2023-01-25T21:39:27.848Z,26.30
2023-01-25T21:41:55.962Z,28.60
2023-01-25T21:44:43.253Z,27.00
2023-01-25T21:50:18.073Z,23.50
2023-01-25T21:52:46.102Z,26.90
2023-01-25T21:55:14.496Z,25.10
2023-01-25T21:57:47.254Z,26.70
2023-01-25T22:00:18.784Z,27.30
2023-01-25T22:02:46.914Z,25.00
2023-01-25T22:05:15.071Z,25.90
2023-01-25T22:07:43.312Z,24.70
2023-01-25T22:10:11.722Z,27.60
2023-01-25T22:12:40.276Z,25.80
2023-01-25T22:15:08.552Z,25.30
2023-01-25T22:17:36.819Z,24.60
2023-01-25T22:20:05.211Z,26.40
2023-01-25T22:22:33.258Z,24.90
2023-01-25T22:25:01.297Z,25.80
2023-01-25T22:27:37.570Z,25.70
2023-01-25T22:30:06.676Z,24.80
2023-01-25T22:32:34.995Z,24.60
2023-01-25T22:35:03.344Z,25.10
2023-01-25T22:37:34.846Z,26.10
2023-01-25T22:40:02.956Z,25.20
2023-01-25T22:42:31.037Z,25.50
2023-01-25T22:44:59.063Z,25.80
2023-01-25T22:47:27.106Z,26.10
2023-01-25T22:49:55.148Z,26.50
2023-01-25T22:52:23.538Z,25.80
2023-01-25T22:54:51.948Z,26.90
2023-01-25T22:57:20.048Z,26.50
2023-01-25T22:59:48.218Z,27.20
2023-01-25T23:02:16.297Z,27.00
2023-01-25T23:04:44.380Z,26.20
2023-01-25T23:07:12.984Z,25.70
2023-01-25T23:09:41.117Z,24.90
2023-01-25T23:12:09.195Z,25.40
2023-01-25T23:14:52.967Z,25.70
2023-01-25T23:17:42.469Z,26.70
2023-01-25T23:20:12.694Z,26.10
2023-01-25T23:22:41.691Z,26.90
2023-01-25T23:25:11.526Z,27.60
2023-01-25T23:27:39.687Z,26.00
2023-01-25T23:30:10.258Z,25.00
2023-01-25T23:32:38.866Z,26.30
2023-01-25T23:35:07.427Z,27.30
2023-01-25T23:37:35.473Z,25.60
2023-01-25T23:40:04.102Z,23.60
2023-01-25T23:42:32.485Z,25.00
2023-01-25T23:45:00.551Z,24.90
2023-01-25T23:47:31.263Z,27.20
2023-01-25T23:49:59.606Z,26.50
2023-01-25T23:52:27.774Z,25.20
2023-01-25T23:54:55.849Z,25.10
2023-01-25T23:57:24.344Z,24.70
2023-01-25T23:59:52.746Z,24.50
